createdAt,value
2023-01-09T00:00:48.618Z,6.08
2023-01-09T00:03:15.205Z,6.03
2023-01-09T00:05:41.792Z,6.02
2023-01-09T00:08:08.283Z,5.99
2023-01-09T00:10:34.920Z,5.99
2023-01-09T00:13:01.372Z,6.05
2023-01-09T00:15:27.860Z,6.10
2023-01-09T00:17:54.275Z,6.09
2023-01-09T00:20:20.696Z,6.01
2023-01-09T00:22:47.113Z,5.98
2023-01-09T00:25:13.598Z,5.95
2023-01-09T00:27:40.005Z,5.94
2023-01-09T00:30:07.325Z,5.91
2023-01-09T00:32:33.763Z,5.91
2023-01-09T00:35:00.220Z,5.94
2023-01-09T00:37:26.666Z,5.95
2023-01-09T00:39:53.085Z,5.95
2023-01-09T00:42:22.439Z,5.97
2023-01-09T00:45:04.416Z,5.96
2023-01-09T00:47:40.001Z,5.98
2023-01-09T00:50:12.872Z,5.99
2023-01-09T00:52:40.589Z,5.99
2023-01-09T00:55:08.206Z,6.00
2023-01-09T00:57:34.830Z,6.03
2023-01-09T01:00:01.655Z,5.97
2023-01-09T01:02:28.372Z,6.01
2023-01-09T01:05:13.134Z,5.97
2023-01-09T01:07:39.721Z,5.98
2023-01-09T01:10:10.438Z,5.94
2023-01-09T01:12:38.294Z,5.93
2023-01-09T01:15:06.407Z,5.96
2023-01-09T01:17:37.578Z,5.93
2023-01-09T01:20:05.939Z,5.93
2023-01-09T01:22:32.568Z,5.95
2023-01-09T01:24:59.104Z,5.90
2023-01-09T01:27:25.638Z,5.89
2023-01-09T01:29:52.141Z,5.85
2023-01-09T01:32:18.992Z,5.83
2023-01-09T01:34:47.618Z,5.81
2023-01-09T01:37:14.611Z,5.83
2023-01-09T01:39:41.378Z,5.82
2023-01-09T01:42:07.995Z,5.72
2023-01-09T01:45:07.404Z,5.69
2023-01-09T01:47:47.317Z,5.75
2023-01-09T01:50:26.191Z,5.73
2023-01-09T01:53:26.997Z,5.77
2023-01-09T01:56:05.760Z,5.82
2023-01-09T01:58:36.315Z,5.73
2023-01-09T02:01:03.647Z,5.72
2023-01-09T02:03:30.204Z,5.70
2023-01-09T02:05:56.827Z,5.71
2023-01-09T02:08:23.664Z,5.72
2023-01-09T02:10:51.284Z,5.76
2023-01-09T02:13:19.435Z,5.71
2023-01-09T02:16:04.523Z,5.76
2023-01-09T02:18:36.776Z,5.72
2023-01-09T02:21:08.498Z,5.72
2023-01-09T02:23:53.505Z,5.67
2023-01-09T02:26:29.094Z,5.67
2023-01-09T02:29:39.919Z,5.73
2023-01-09T02:32:14.690Z,5.72
2023-01-09T02:34:58.017Z,5.73
2023-01-09T02:37:30.486Z,5.76
2023-01-09T02:40:22.098Z,5.82
2023-01-09T02:42:49.238Z,5.89
2023-01-09T02:45:15.947Z,5.80
2023-01-09T02:47:45.136Z,5.77
2023-01-09T02:51:01.084Z,5.77
2023-01-09T02:53:55.187Z,5.90
2023-01-09T02:56:37.963Z,5.79
2023-01-09T02:59:19.709Z,5.75
2023-01-09T03:02:04.685Z,5.67
2023-01-09T03:04:48.559Z,5.67
2023-01-09T03:07:36.885Z,5.66
2023-01-09T03:10:28.415Z,5.69
2023-01-09T03:12:59.116Z,5.69
2023-01-09T03:15:31.464Z,5.69
2023-01-09T03:17:59.042Z,5.78
2023-01-09T03:20:29.395Z,5.84
2023-01-09T03:22:58.650Z,5.92
2023-01-09T03:25:26.093Z,6.06
2023-01-09T03:27:59.708Z,5.99
2023-01-09T03:30:28.237Z,6.01
2023-01-09T03:32:55.271Z,5.98
2023-01-09T03:35:21.771Z,5.91
2023-01-09T03:37:48.461Z,5.80
2023-01-09T03:40:15.285Z,5.55
2023-01-09T03:42:41.681Z,5.46
2023-01-09T03:45:08.563Z,5.18
2023-01-09T03:47:35.205Z,4.87
2023-01-09T03:50:02.192Z,4.72
2023-01-09T03:52:28.871Z,4.52
2023-01-09T03:54:55.321Z,4.35
2023-01-09T03:57:21.945Z,4.23
2023-01-09T03:59:48.389Z,4.13
2023-01-09T04:02:14.944Z,4.03
2023-01-09T04:04:41.412Z,4.01
2023-01-09T04:07:07.979Z,3.98
2023-01-09T04:09:34.505Z,3.91
2023-01-09T04:12:00.960Z,3.94
2023-01-09T04:14:27.521Z,3.90
2023-01-09T04:16:53.985Z,3.95
2023-01-09T04:19:20.415Z,3.96
2023-01-09T04:21:46.921Z,4.01
2023-01-09T04:24:13.354Z,4.10
2023-01-09T04:26:39.788Z,4.16
2023-01-09T04:29:06.199Z,4.25
2023-01-09T04:31:32.698Z,4.20
2023-01-09T04:33:59.295Z,4.18
2023-01-09T04:36:25.838Z,4.09
2023-01-09T04:38:52.331Z,4.09
2023-01-09T04:41:39.101Z,4.16
2023-01-09T04:44:05.692Z,4.22
2023-01-09T04:46:32.117Z,4.14
2023-01-09T04:48:58.636Z,4.13
2023-01-09T04:51:25.047Z,4.16
2023-01-09T04:53:51.488Z,4.23
2023-01-09T04:56:17.907Z,4.25
2023-01-09T04:58:44.364Z,4.36
2023-01-09T05:01:10.926Z,4.33
2023-01-09T05:03:37.447Z,4.26
2023-01-09T05:06:04.148Z,4.36
2023-01-09T05:08:30.615Z,4.40
2023-01-09T05:10:57.013Z,4.24
2023-01-09T05:13:23.571Z,4.31
2023-01-09T05:15:50.062Z,4.37
2023-01-09T05:18:16.579Z,4.42
2023-01-09T05:20:43.081Z,4.27
2023-01-09T05:23:09.527Z,4.27
2023-01-09T05:25:36.010Z,4.33
2023-01-09T05:28:02.522Z,4.35
2023-01-09T05:30:29.104Z,4.35
2023-01-09T05:32:55.509Z,4.40
2023-01-09T05:35:21.960Z,4.29
2023-01-09T05:37:48.441Z,4.29
2023-01-09T05:40:15.026Z,4.17
2023-01-09T05:42:43.512Z,4.07
2023-01-09T05:45:10.452Z,4.19
2023-01-09T05:47:37.271Z,4.02
2023-01-09T05:50:04.430Z,3.94
2023-01-09T05:52:31.019Z,4.03
2023-01-09T05:54:57.515Z,3.96
2023-01-09T05:57:24.055Z,3.91
2023-01-09T05:59:50.508Z,3.80
2023-01-09T06:02:17.112Z,3.86
2023-01-09T06:04:43.958Z,3.80
2023-01-09T06:07:10.438Z,3.89
2023-01-09T06:09:36.888Z,3.93
2023-01-09T06:12:03.706Z,3.88
2023-01-09T06:14:30.258Z,3.86
2023-01-09T06:16:56.810Z,3.83
2023-01-09T06:19:23.282Z,3.73
2023-01-09T06:21:49.746Z,3.75
2023-01-09T06:24:16.354Z,3.64
2023-01-09T06:26:42.911Z,3.72
2023-01-09T06:29:09.427Z,3.76
2023-01-09T06:31:36.005Z,3.71
2023-01-09T06:34:02.597Z,3.67
2023-01-09T06:36:29.075Z,3.64
2023-01-09T06:38:55.556Z,3.55
2023-01-09T06:41:22.015Z,3.63
2023-01-09T06:43:48.572Z,3.70
2023-01-09T06:46:15.075Z,3.83
2023-01-09T06:48:41.689Z,3.85
2023-01-09T06:51:08.128Z,3.69
2023-01-09T06:53:35.096Z,3.81
2023-01-09T06:56:02.728Z,3.86
2023-01-09T06:58:29.249Z,3.75
2023-01-09T07:00:56.185Z,3.70
2023-01-09T07:03:22.735Z,3.76
2023-01-09T07:05:49.610Z,3.69
2023-01-09T07:08:16.300Z,3.63
2023-01-09T07:10:43.594Z,3.62
2023-01-09T07:13:10.636Z,3.66
2023-01-09T07:15:37.371Z,3.79
2023-01-09T07:18:04.257Z,3.76
2023-01-09T07:20:31.023Z,3.68
2023-01-09T07:22:58.178Z,3.68
2023-01-09T07:25:24.782Z,3.71
2023-01-09T07:27:51.288Z,3.73
2023-01-09T07:30:18.023Z,3.85
2023-01-09T07:32:44.580Z,3.82
2023-01-09T07:35:11.130Z,3.77
2023-01-09T07:37:37.626Z,3.75
2023-01-09T07:40:05.055Z,3.72
2023-01-09T07:42:31.595Z,3.75
2023-01-09T07:44:58.031Z,3.80
2023-01-09T07:47:24.533Z,3.77
2023-01-09T07:49:51.071Z,3.74
2023-01-09T07:52:17.532Z,3.69
2023-01-09T07:54:43.931Z,3.76
2023-01-09T07:57:10.340Z,3.85
2023-01-09T07:59:36.724Z,3.86
2023-01-09T08:02:05.511Z,3.77
2023-01-09T08:04:32.030Z,3.75
2023-01-09T08:06:58.731Z,3.71
2023-01-09T08:09:25.249Z,3.72
2023-01-09T08:11:51.810Z,3.74
2023-01-09T08:14:18.266Z,3.68
2023-01-09T08:16:44.684Z,3.71
2023-01-09T08:19:12.152Z,3.69
2023-01-09T08:21:39.815Z,3.77
2023-01-09T08:24:06.708Z,3.72
2023-01-09T08:26:33.301Z,3.72
2023-01-09T08:28:59.711Z,3.73
2023-01-09T08:31:26.212Z,3.75
2023-01-09T08:33:52.908Z,3.77
2023-01-09T08:36:19.421Z,3.79
2023-01-09T08:38:45.891Z,3.84
2023-01-09T08:41:30.839Z,3.85
2023-01-09T08:44:15.555Z,3.89
2023-01-09T08:47:01.047Z,4.03
2023-01-09T08:49:27.473Z,4.05
2023-01-09T08:51:53.941Z,4.08
2023-01-09T08:54:20.461Z,4.09
2023-01-09T08:56:47.123Z,4.12
2023-01-09T08:59:13.826Z,4.19
2023-01-09T09:01:40.474Z,4.31
2023-01-09T09:04:07.002Z,4.41
2023-01-09T09:06:34.134Z,4.48
2023-01-09T09:09:03.215Z,4.63
2023-01-09T09:11:30.517Z,4.66
2023-01-09T09:13:57.656Z,4.72
2023-01-09T09:16:25.870Z,4.79
2023-01-09T09:18:52.867Z,4.84
2023-01-09T09:21:20.455Z,4.82
2023-01-09T09:23:46.929Z,4.93
2023-01-09T09:26:13.615Z,4.97
2023-01-09T09:28:40.046Z,5.05
2023-01-09T09:31:07.545Z,5.13
2023-01-09T09:33:34.120Z,5.17
2023-01-09T09:36:00.676Z,5.25
2023-01-09T09:38:28.343Z,5.32
2023-01-09T09:42:00.793Z,5.43
2023-01-09T09:44:48.327Z,5.31
2023-01-09T09:47:57.243Z,5.31
2023-01-09T09:50:37.412Z,5.36
2023-01-09T09:53:03.822Z,5.41
2023-01-09T09:55:34.031Z,5.46
2023-01-09T09:58:05.502Z,5.41
2023-01-09T10:00:32.333Z,5.44
2023-01-09T10:03:06.616Z,5.39
2023-01-09T10:05:48.240Z,5.42
2023-01-09T10:08:42.566Z,5.41
2023-01-09T10:11:17.241Z,5.33
2023-01-09T10:14:04.189Z,5.27
2023-01-09T10:16:50.580Z,5.24
2023-01-09T10:19:40.190Z,5.25
2023-01-09T10:22:26.412Z,5.22
2023-01-09T10:25:11.558Z,5.29
2023-01-09T10:28:15.613Z,5.41
2023-01-09T10:30:56.899Z,5.43
2023-01-09T10:33:41.018Z,5.40
2023-01-09T10:36:25.751Z,5.53
2023-01-09T10:38:55.890Z,5.59
2023-01-09T10:41:30.055Z,5.65
2023-01-09T10:44:03.035Z,5.67
2023-01-09T10:46:38.850Z,5.76
2023-01-09T10:49:12.631Z,5.71
2023-01-09T10:52:02.049Z,5.70
2023-01-09T10:54:29.571Z,5.75
2023-01-09T10:57:28.630Z,5.73
2023-01-09T10:59:56.161Z,5.66
2023-01-09T11:02:25.415Z,5.68
2023-01-09T11:04:52.258Z,5.68
2023-01-09T11:07:23.052Z,5.65
2023-01-09T11:09:57.930Z,5.62
2023-01-09T11:12:26.787Z,5.71
2023-01-09T11:14:53.493Z,5.75
2023-01-09T11:17:25.190Z,5.85
2023-01-09T11:20:02.010Z,5.96
2023-01-09T11:22:28.801Z,5.95
2023-01-09T11:25:05.397Z,6.11
2023-01-09T11:27:31.808Z,6.32
2023-01-09T11:30:04.445Z,6.33
2023-01-09T11:32:32.053Z,6.22
2023-01-09T11:34:58.877Z,6.20
2023-01-09T11:37:29.325Z,6.07
2023-01-09T11:39:58.306Z,6.03
2023-01-09T11:42:45.372Z,6.01
2023-01-09T11:45:20.109Z,5.99
2023-01-09T11:47:46.969Z,5.96
2023-01-09T11:50:26.117Z,5.95
2023-01-09T11:53:16.535Z,5.91
2023-01-09T11:55:45.309Z,5.93
2023-01-09T11:58:17.216Z,5.86
2023-01-09T12:00:53.878Z,5.86
2023-01-09T12:03:51.180Z,5.79
2023-01-09T12:06:46.889Z,5.62
2023-01-09T12:09:41.770Z,5.80
2023-01-09T12:12:14.163Z,5.76
2023-01-09T12:14:43.560Z,5.78
2023-01-09T12:17:42.400Z,5.82
2023-01-09T12:20:41.996Z,5.81
2023-01-09T12:23:42.112Z,5.90
2023-01-09T12:26:22.993Z,5.84
2023-01-09T12:29:25.086Z,6.04
2023-01-09T12:32:00.467Z,6.10
2023-01-09T12:34:53.086Z,6.09
2023-01-09T12:37:25.546Z,6.05
2023-01-09T12:40:16.430Z,6.08
2023-01-09T12:42:56.958Z,5.75
2023-01-09T12:45:51.232Z,5.68
2023-01-09T12:48:33.326Z,5.64
2023-01-09T12:51:12.690Z,5.76
2023-01-09T12:53:49.141Z,5.79
2023-01-09T12:56:24.957Z,5.77
2023-01-09T12:59:00.024Z,5.84
2023-01-09T13:01:33.735Z,5.95
2023-01-09T13:04:09.627Z,6.05
2023-01-09T13:06:40.246Z,6.02
2023-01-09T13:09:38.742Z,6.00
2023-01-09T13:12:16.942Z,6.11
2023-01-09T13:14:51.435Z,6.19
2023-01-09T13:17:24.848Z,6.17
2023-01-09T13:19:53.169Z,6.31
2023-01-09T13:22:22.507Z,6.16
2023-01-09T13:25:06.451Z,6.17
2023-01-09T13:27:39.282Z,6.21
2023-01-09T13:30:32.060Z,6.32
2023-01-09T13:33:15.192Z,6.11
2023-01-09T13:35:53.663Z,5.97
2023-01-09T13:38:23.559Z,5.91
2023-01-09T13:41:26.696Z,5.88
2023-01-09T13:44:00.485Z,5.85
2023-01-09T13:46:44.967Z,5.78
2023-01-09T13:49:29.499Z,5.63
2023-01-09T13:52:16.973Z,5.66
2023-01-09T13:54:55.797Z,5.66
2023-01-09T13:57:34.900Z,5.71
2023-01-09T14:00:07.263Z,5.70
2023-01-09T14:02:38.302Z,5.58
2023-01-09T14:05:13.665Z,5.75
2023-01-09T14:07:49.500Z,5.64
2023-01-09T14:10:25.596Z,5.64
2023-01-09T14:12:54.834Z,5.62
2023-01-09T14:15:39.422Z,5.57
2023-01-09T14:18:14.965Z,5.61
2023-01-09T14:23:54.979Z,5.52
2023-01-09T14:26:25.616Z,5.42
2023-01-09T14:28:52.317Z,5.25
2023-01-09T14:31:30.468Z,5.20
2023-01-09T14:34:31.679Z,5.36
2023-01-09T14:37:01.681Z,5.42
2023-01-09T14:39:31.925Z,5.35
2023-01-09T14:42:06.218Z,5.35
2023-01-09T14:44:53.363Z,5.20
2023-01-09T14:47:31.443Z,5.15
2023-01-09T14:49:57.986Z,5.18
2023-01-09T14:52:35.316Z,5.11
2023-01-09T14:55:06.495Z,5.07
2023-01-09T14:57:34.765Z,5.01
2023-01-09T15:00:20.517Z,5.02
2023-01-09T15:02:48.168Z,5.10
2023-01-09T15:05:20.258Z,5.11
2023-01-09T15:07:54.461Z,5.07
2023-01-09T15:10:25.012Z,5.21
2023-01-09T15:12:54.566Z,4.93
2023-01-09T15:15:22.488Z,4.79
2023-01-09T15:18:10.581Z,4.33
2023-01-09T15:20:37.216Z,3.97
2023-01-09T15:23:05.360Z,3.71
2023-01-09T15:25:39.547Z,3.31
2023-01-09T15:28:32.376Z,3.15
2023-01-09T15:31:12.401Z,3.05
2023-01-09T15:33:40.537Z,3.07
2023-01-09T15:36:20.701Z,3.02
2023-01-09T15:38:49.801Z,3.07
2023-01-09T15:41:39.562Z,3.11
2023-01-09T15:44:11.998Z,3.17
2023-01-09T15:46:39.674Z,3.20
2023-01-09T15:49:09.309Z,3.35
2023-01-09T15:51:35.817Z,3.23
2023-01-09T15:54:03.960Z,3.18
2023-01-09T15:56:30.832Z,3.12
2023-01-09T15:59:01.052Z,3.04
2023-01-09T16:01:41.362Z,3.02
2023-01-09T16:04:13.821Z,2.98
2023-01-09T16:06:47.715Z,3.01
2023-01-09T16:09:28.467Z,3.07
2023-01-09T16:12:01.353Z,3.17
2023-01-09T16:14:39.747Z,3.09
2023-01-09T16:17:14.230Z,3.10
2023-01-09T16:19:49.032Z,3.16
2023-01-09T16:22:24.264Z,3.22
2023-01-09T16:24:55.670Z,3.39
2023-01-09T16:27:28.621Z,3.36
2023-01-09T16:29:58.410Z,3.29
2023-01-09T16:32:27.040Z,3.24
2023-01-09T16:34:56.015Z,3.40
2023-01-09T16:37:24.383Z,3.37
2023-01-09T16:40:09.694Z,3.21
2023-01-09T16:42:54.697Z,3.18
2023-01-09T16:45:21.330Z,3.19
2023-01-09T16:47:47.817Z,3.13
2023-01-09T16:50:14.287Z,3.02
2023-01-09T16:52:40.751Z,2.98
2023-01-09T16:55:07.581Z,2.94
2023-01-09T16:57:35.096Z,2.90
2023-01-09T17:00:02.119Z,2.95
2023-01-09T17:02:28.627Z,2.93
2023-01-09T17:04:59.355Z,2.96
2023-01-09T17:07:25.781Z,2.91
2023-01-09T17:09:53.271Z,2.92
2023-01-09T17:12:22.050Z,2.95
2023-01-09T17:14:49.578Z,2.91
2023-01-09T17:17:17.257Z,2.97
2023-01-09T17:19:46.597Z,3.00
2023-01-09T17:22:14.206Z,3.02
2023-01-09T17:24:59.875Z,3.02
2023-01-09T17:27:50.402Z,3.21
2023-01-09T17:30:19.457Z,3.16
2023-01-09T17:32:46.863Z,3.15
2023-01-09T17:35:13.725Z,3.16
2023-01-09T17:37:40.239Z,3.18
2023-01-09T17:40:19.006Z,3.31
2023-01-09T17:42:45.519Z,3.42
2023-01-09T17:45:12.202Z,3.62
2023-01-09T17:47:38.854Z,3.76
2023-01-09T17:50:06.182Z,3.84
2023-01-09T17:52:33.101Z,3.87
2023-01-09T17:55:05.106Z,3.82
2023-01-09T17:57:32.790Z,3.90
2023-01-09T17:59:59.394Z,4.07
2023-01-09T18:02:26.028Z,3.95
2023-01-09T18:04:52.654Z,3.96
2023-01-09T18:07:19.435Z,3.85
2023-01-09T18:09:45.965Z,3.76
2023-01-09T18:12:12.554Z,3.73
2023-01-09T18:14:40.569Z,3.72
2023-01-09T18:17:07.431Z,3.69
2023-01-09T18:19:34.037Z,3.80
2023-01-09T18:22:00.598Z,3.72
2023-01-09T18:24:27.149Z,3.67
2023-01-09T18:26:54.269Z,3.60
2023-01-09T18:29:21.308Z,3.64
2023-01-09T18:31:48.197Z,3.56
2023-01-09T18:34:14.826Z,3.40
2023-01-09T18:36:41.474Z,3.44
2023-01-09T18:39:08.692Z,3.41
2023-01-09T18:41:35.209Z,3.40
2023-01-09T18:44:02.118Z,3.23
2023-01-09T18:46:32.385Z,3.14
2023-01-09T18:49:04.969Z,3.10
2023-01-09T18:51:33.194Z,3.06
2023-01-09T18:53:59.633Z,3.06
2023-01-09T18:56:26.427Z,3.19
2023-01-09T18:58:57.567Z,3.22
2023-01-09T19:01:25.444Z,3.15
2023-01-09T19:03:52.100Z,3.02
2023-01-09T19:06:18.672Z,3.03
2023-01-09T19:08:45.211Z,2.99
2023-01-09T19:11:11.642Z,2.92
2023-01-09T19:13:38.478Z,2.83
2023-01-09T19:16:07.904Z,2.99
2023-01-09T19:18:40.014Z,2.93
2023-01-09T19:21:22.060Z,2.91
2023-01-09T19:23:49.414Z,2.89
2023-01-09T19:26:23.474Z,2.92
2023-01-09T19:28:51.770Z,2.86
2023-01-09T19:31:18.476Z,2.88
2023-01-09T19:33:45.251Z,2.89
2023-01-09T19:36:12.074Z,2.84
2023-01-09T19:38:38.536Z,2.86
2023-01-09T19:41:17.708Z,2.85
2023-01-09T19:43:44.814Z,2.94
2023-01-09T19:46:18.794Z,2.88
2023-01-09T19:48:46.311Z,2.90
2023-01-09T19:51:14.121Z,2.99
2023-01-09T19:53:40.971Z,2.89
2023-01-09T19:56:11.802Z,2.73
2023-01-09T19:58:39.155Z,2.75
2023-01-09T20:01:10.476Z,2.62
2023-01-09T20:03:37.788Z,2.64
2023-01-09T20:06:06.211Z,2.67
2023-01-09T20:08:32.780Z,2.65
2023-01-09T20:11:05.408Z,2.67
2023-01-09T20:13:32.745Z,2.63
2023-01-09T20:16:00.401Z,2.55
2023-01-09T20:18:26.889Z,2.58
2023-01-09T20:20:53.342Z,2.57
2023-01-09T20:23:23.229Z,2.57
2023-01-09T20:25:50.601Z,2.63
2023-01-09T20:28:17.492Z,2.69
2023-01-09T20:30:46.047Z,2.79
2023-01-09T20:33:12.981Z,2.72
2023-01-09T20:35:39.506Z,2.80
2023-01-09T20:38:05.976Z,2.86
2023-01-09T20:40:35.349Z,2.86
2023-01-09T20:43:02.062Z,2.94
2023-01-09T20:45:28.646Z,2.90
2023-01-09T20:47:55.234Z,2.86
2023-01-09T20:50:22.326Z,2.98
2023-01-09T20:52:48.891Z,2.96
2023-01-09T20:55:15.481Z,2.99
2023-01-09T20:57:41.947Z,2.99
2023-01-09T21:00:09.482Z,3.06
2023-01-09T21:02:36.043Z,2.99
2023-01-09T21:05:03.281Z,3.21
2023-01-09T21:07:29.897Z,3.14
2023-01-09T21:09:56.387Z,3.22
2023-01-09T21:12:27.610Z,3.20
2023-01-09T21:14:55.084Z,3.09
2023-01-09T21:17:21.736Z,3.01
2023-01-09T21:19:49.635Z,2.92
2023-01-09T21:22:16.640Z,2.92
2023-01-09T21:24:43.085Z,2.88
2023-01-09T21:27:09.631Z,2.82
2023-01-09T21:29:36.075Z,2.82
2023-01-09T21:32:02.606Z,2.88
2023-01-09T21:34:29.122Z,2.91
2023-01-09T21:36:55.708Z,2.93
2023-01-09T21:39:22.224Z,3.00
2023-01-09T21:42:07.327Z,3.04
2023-01-09T21:44:52.171Z,3.07
2023-01-09T21:47:18.706Z,3.05
2023-01-09T21:49:45.598Z,3.11
2023-01-09T21:52:13.979Z,3.10
2023-01-09T21:54:41.133Z,3.17
2023-01-09T21:57:07.769Z,3.25
2023-01-09T21:59:34.276Z,3.29
2023-01-09T22:02:00.818Z,3.27
2023-01-09T22:04:29.056Z,3.26
2023-01-09T22:06:56.353Z,3.20
2023-01-09T22:09:22.883Z,3.18
2023-01-09T22:11:49.291Z,3.18
2023-01-09T22:14:18.233Z,3.19
2023-01-09T22:16:46.126Z,3.23
2023-01-09T22:19:13.694Z,3.39
2023-01-09T22:21:40.186Z,3.43
2023-01-09T22:24:06.957Z,3.54
2023-01-09T22:26:34.286Z,3.40
2023-01-09T22:29:00.806Z,3.40
2023-01-09T22:31:32.470Z,3.36
2023-01-09T22:34:02.424Z,3.30
2023-01-09T22:36:30.482Z,3.25
2023-01-09T22:38:58.719Z,3.24
2023-01-09T22:41:26.966Z,3.11
2023-01-09T22:43:53.475Z,3.10
2023-01-09T22:46:20.112Z,3.10
2023-01-09T22:48:47.235Z,3.06
2023-01-09T22:51:18.782Z,3.11
2023-01-09T22:53:45.514Z,3.04
2023-01-09T22:56:15.221Z,3.18
2023-01-09T22:58:42.360Z,3.07
2023-01-09T23:01:12.210Z,3.10
2023-01-09T23:03:39.864Z,3.05
2023-01-09T23:06:11.896Z,3.07
2023-01-09T23:08:39.052Z,3.11
2023-01-09T23:11:07.751Z,3.21
2023-01-09T23:13:34.199Z,3.22
2023-01-09T23:16:01.722Z,3.19
2023-01-09T23:18:28.649Z,3.06
2023-01-09T23:20:57.533Z,3.10
2023-01-09T23:23:26.041Z,3.21
2023-01-09T23:25:55.451Z,3.21
2023-01-09T23:28:22.969Z,3.15
2023-01-09T23:30:49.774Z,3.14
2023-01-09T23:33:17.060Z,3.18
2023-01-09T23:35:44.088Z,3.14
2023-01-09T23:38:14.002Z,3.18
2023-01-09T23:40:41.936Z,3.14
2023-01-09T23:43:13.582Z,3.22
2023-01-09T23:45:41.078Z,3.23
2023-01-09T23:48:09.914Z,3.19
2023-01-09T23:50:37.271Z,3.20
2023-01-09T23:53:04.629Z,3.31
2023-01-09T23:55:31.197Z,3.46
2023-01-09T23:57:57.811Z,3.49
